AirNav  
 
 365 users online  

UT83 Thunder Ridge Airpark
Fruitland, Utah, USA


FAA INFORMATION EFFECTIVE 09 NOVEMBER 2017

Location

FAA Identifier: UT83
Lat/Long: 40-15-28.1500N / 110-51-31.0000W
40-15.469167N / 110-51.516667W
40.2578194 / -110.8586111
(estimated)
Elevation: 7050 ft. / 2149 m (estimated)
From city: 3 miles SE of FRUITLAND, UT
Time zone: UTC -7 (UTC -6 during Daylight Saving Time)
Zip code: 84051

Airport Operations

Airport use: Private use. Permission required prior to landing
Activation date: 05/2006
Control tower: no
ARTCC: SALT LAKE CITY CENTER
FSS: CEDAR CITY FLIGHT SERVICE STATION
Attendance: UNATNDD
Wind indicator: yes
Segmented circle: no

Nearby radio navigation aids

VOR radial/distance  VOR name  Freq  Var
MTUr267/34.2MYTON VOR/DME112.7014E
PUCr339/39.6CARBON VOR/DME115.5014E
PVUr071/39.6PROVO VOR/DME108.4015E

Airport Services

Runway Information

Runway 13/31

Dimensions: 4000 x 48 ft. / 1219 x 15 m
Surface: asphalt
RUNWAY 13  RUNWAY 31
Traffic pattern: leftleft
Displaced threshold: 175 ft.no

Airport Ownership and Management from official FAA records

Ownership: Privately-owned
Owner: THUNDER RIDGE AIRPARK, LLC
357W 910S, UNIT A
HEBER CITY, UT 84032
Phone 435-654-1867
Manager: TRACY LIVINGSTON
357W 910S, UNIT A
HEBER CITY, UT 84032
Phone 435-654-1867

Airport Operational Statistics

Aircraft based on the field: 50
Single engine airplanes: 50
    

Additional Remarks

WILDLIFE ON RY, RY 31 NOT RECOMMENDED FOR DEP, RY 13 NOT RECOMMENDED FOR LND DUE TO RISING TRRN.
OWNER DESIRES CHARTING.

Instrument Procedures

There are no published instrument procedures at UT83.

Some nearby airports with instrument procedures:

U69 - Duchesne Municipal Airport (22 nm E)
KHCR - Heber City Municipal Airport - Russ McDonald Field (29 nm NW)
74V - Roosevelt Municipal Airport (37 nm E)
KPUC - Carbon County Regional Airport/Buck Davis Field (39 nm S)
KPVU - Provo Municipal Airport (40 nm W)
 
Loc | Ops | Rwys | IFR | FBO | Links
Com | Nav | Svcs | Stats | Notes

TAC Air
 
Area around UT83 (Thunder Ridge Airpark)
 
Road maps at: MapQuest Bing Google
 
Aerial photo
WARNING: Photo may not be current or correct
Aerial photo of UT83 (Thunder Ridge Airpark)
Do you have a better or more recent aerial photo of Thunder Ridge Airpark that you would like to share? If so, please send us your photo.

 
Sectional chart

 
Airport distance calculator
Flying to Thunder Ridge Airpark? Find the distance to fly.

From to UT83

Sunrise and sunset
Times for 22-Nov-2017
 Local
(UTC-7)
 Zulu
(UTC)
Morning civil twilight06:4913:49
Sunrise07:1814:18
Sunset17:0100:01
Evening civil twilight17:3100:31

Current date and time
Zulu (UTC)  22-Nov-2017 11:17:46
Local (UTC-7)  22-Nov-2017 04:17:46
 
METAR
KHCR 
29nm NW 
221055Z AUTO 00000KT 10SM CLR 00/M01 A3045 RMK AO2
KPUC 
39nm S 
221053Z AUTO 01006KT 10SM CLR 02/M04 A3043 RMK AO2 SLP302 T00171039
KPVU 
39nm W 
221056Z AUTO 00000KT 10SM CLR 05/02 A3043 RMK AO2 SLP291 T00500017
TAF
KHCR 
29nm NW 
220529Z 2206/2306 00000KT P6SM BKN200 FM221600 23006KT P6SM FEW200 FM230200 00000KT P6SM BKN200
NOTAMs
Click for the latest NOTAMs
NOTAMs are issued by the DoD/FAA and will open in a separate window not controlled by AirNav.

 

 
 

Would you like to see your business listed on this page?

 If your business provides an interesting product or service to pilots, flight crews, aircraft, or users of the Thunder Ridge Airpark, you should consider listing it here.  To start the listing process, click on the button below
 
Add a business
 

Other Pages about Thunder Ridge Airpark

www.thunderridgeairpark.com
 
Update a link
 
Copyright © AirNav, LLC. All rights reserved. Privacy Policy  Contact